Accueil
METAR-TAF:

METAR-TAF

Aéroports :

Aéroport régional de Lawton-Fort Sill

Lawton, Oklahoma, États-Unis

latitude: 34-33-27N, longitude: 098-25-00W, altitude: 338 m

Observation

Le bulletin a été fait il y a 1 heure et 3 minutes, à 00:53 UTC
Vent calme
Température 3°C
Humidité 70%
Pression 1027 hPa
Visibilité: 16.1 km
Ciel clair

METAR: KLAW 110053Z AUTO 00000KT 10SM CLR 03/M02 A3032 RMK AO2 SLP277 T00281017

Heure: 19:56 (01:56 UTC)

Prévision

Le bulletin a été fait il y a 2 heures et 36 minutes, à 23:20 UTC
Prévision valable du 11 à 00 UTC au 11 à 24 UTC
Vent 3 kt de direction variable
Visibilité: 10 km
Ciel clair
A partir de 11 à 1500 UTC
Vent 14 kt de sud/sud-ouest avec des rafales jusqu'à 24 kt
Visibilité: 10 km
Nuages fragmentés à une hauteur de 25000 ft

TAF: KLAW 102320Z 1100/1124 VRB03KT P6SM SKC FM111500 20014G24KT P6SM BKN250

Observations et prévisions météorologiques de plus de 4000 aéroports (messages METAR et TAF).

Les stations disponibles sont représentées par des disques jaunes et rouges sur la carte.

Passer la souris dessus pour voir le nom de la station.

Cliquer dessus pour voir les observations et prévisions météorologiques.

Pour changer de carte: cliquez sur les boutons verts avec une croix noire pour zoomer, sur le bouton vert avec un tiret pour effectuer un zoom arrière, ou sur les flèches vertes pour les cartes adjacentes.


METAR-TAF: